sensor_id;sensor_type;location;lat;lon;timestamp;P1;durP1;ratioP1;P2;durP2;ratioP2
18159;SDS011;9205;52.032;4.314;2023-06-19T00:01:18;1.87;;;1.27;;
18159;SDS011;9205;52.032;4.314;2023-06-19T00:03:46;1.37;;;0.97;;
18159;SDS011;9205;52.032;4.314;2023-06-19T00:06:13;3.43;;;1.60;;
18159;SDS011;9205;52.032;4.314;2023-06-19T00:08:40;2.47;;;1.20;;
18159;SDS011;9205;52.032;4.314;2023-06-19T00:11:07;2.43;;;1.27;;
18159;SDS011;9205;52.032;4.314;2023-06-19T00:13:35;3.43;;;1.40;;
18159;SDS011;9205;52.032;4.314;2023-06-19T00:16:04;2.57;;;1.73;;
18159;SDS011;9205;52.032;4.314;2023-06-19T00:18:31;2.03;;;1.60;;
18159;SDS011;9205;52.032;4.314;2023-06-19T00:21:05;3.90;;;1.60;;
18159;SDS011;9205;52.032;4.314;2023-06-19T00:23:33;1.73;;;1.40;;
18159;SDS011;9205;52.032;4.314;2023-06-19T00:26:00;2.27;;;1.77;;
18159;SDS011;9205;52.032;4.314;2023-06-19T00:28:28;2.97;;;1.70;;
18159;SDS011;9205;52.032;4.314;2023-06-19T00:30:56;3.80;;;2.00;;
18159;SDS011;9205;52.032;4.314;2023-06-19T00:33:24;3.10;;;2.40;;
18159;SDS011;9205;52.032;4.314;2023-06-19T00:35:51;3.60;;;2.80;;
18159;SDS011;9205;52.032;4.314;2023-06-19T00:38:20;3.50;;;2.50;;
18159;SDS011;9205;52.032;4.314;2023-06-19T00:40:49;3.67;;;2.40;;
18159;SDS011;9205;52.032;4.314;2023-06-19T00:43:16;2.60;;;2.23;;
18159;SDS011;9205;52.032;4.314;2023-06-19T00:45:43;3.23;;;2.13;;
18159;SDS011;9205;52.032;4.314;2023-06-19T00:48:11;4.13;;;2.60;;
18159;SDS011;9205;52.032;4.314;2023-06-19T00:50:39;4.87;;;2.37;;
18159;SDS011;9205;52.032;4.314;2023-06-19T00:53:07;4.43;;;2.13;;
18159;SDS011;9205;52.032;4.314;2023-06-19T00:55:35;3.57;;;2.47;;
18159;SDS011;9205;52.032;4.314;2023-06-19T00:58:03;4.57;;;2.40;;
18159;SDS011;9205;52.032;4.314;2023-06-19T01:00:31;5.93;;;2.70;;
18159;SDS011;9205;52.032;4.314;2023-06-19T01:02:59;3.43;;;2.63;;
18159;SDS011;9205;52.032;4.314;2023-06-19T01:05:27;4.80;;;2.57;;
18159;SDS011;9205;52.032;4.314;2023-06-19T01:07:58;4.30;;;2.90;;
18159;SDS011;9205;52.032;4.314;2023-06-19T01:10:40;4.07;;;2.87;;
18159;SDS011;9205;52.032;4.314;2023-06-19T01:13:15;4.97;;;3.10;;
18159;SDS011;9205;52.032;4.314;2023-06-19T01:16:01;5.53;;;3.63;;
18159;SDS011;9205;52.032;4.314;2023-06-19T01:18:34;5.37;;;3.97;;
18159;SDS011;9205;52.032;4.314;2023-06-19T01:21:09;6.07;;;4.13;;
18159;SDS011;9205;52.032;4.314;2023-06-19T01:23:40;6.40;;;4.37;;
18159;SDS011;9205;52.032;4.314;2023-06-19T01:26:08;5.80;;;4.07;;
18159;SDS011;9205;52.032;4.314;2023-06-19T01:28:39;7.23;;;4.93;;
18159;SDS011;9205;52.032;4.314;2023-06-19T01:31:11;7.73;;;4.73;;
18159;SDS011;9205;52.032;4.314;2023-06-19T01:33:44;7.77;;;5.03;;
18159;SDS011;9205;52.032;4.314;2023-06-19T01:36:16;7.07;;;4.77;;
18159;SDS011;9205;52.032;4.314;2023-06-19T01:38:48;7.90;;;5.97;;
18159;SDS011;9205;52.032;4.314;2023-06-19T01:41:17;8.43;;;5.97;;
18159;SDS011;9205;52.032;4.314;2023-06-19T01:43:49;9.50;;;6.23;;
18159;SDS011;9205;52.032;4.314;2023-06-19T01:46:18;8.83;;;5.90;;
18159;SDS011;9205;52.032;4.314;2023-06-19T01:48:46;8.83;;;6.10;;
18159;SDS011;9205;52.032;4.314;2023-06-19T01:51:13;10.97;;;6.23;;
18159;SDS011;9205;52.032;4.314;2023-06-19T01:53:40;10.37;;;6.57;;
18159;SDS011;9205;52.032;4.314;2023-06-19T01:56:10;10.47;;;6.60;;
18159;SDS011;9205;52.032;4.314;2023-06-19T01:58:40;9.43;;;6.60;;
18159;SDS011;9205;52.032;4.314;2023-06-19T02:01:07;9.47;;;6.33;;
18159;SDS011;9205;52.032;4.314;2023-06-19T02:03:37;13.97;;;7.77;;
18159;SDS011;9205;52.032;4.314;2023-06-19T02:06:04;14.67;;;8.93;;
18159;SDS011;9205;52.032;4.314;2023-06-19T02:08:32;17.03;;;9.73;;
18159;SDS011;9205;52.032;4.314;2023-06-19T02:10:59;19.63;;;10.90;;
18159;SDS011;9205;52.032;4.314;2023-06-19T02:13:28;20.97;;;11.53;;
18159;SDS011;9205;52.032;4.314;2023-06-19T02:15:55;22.30;;;11.83;;
18159;SDS011;9205;52.032;4.314;2023-06-19T02:18:24;26.37;;;13.63;;
18159;SDS011;9205;52.032;4.314;2023-06-19T02:20:52;27.40;;;15.17;;
18159;SDS011;9205;52.032;4.314;2023-06-19T02:23:21;27.17;;;14.87;;
18159;SDS011;9205;52.032;4.314;2023-06-19T02:25:49;28.20;;;15.43;;
18159;SDS011;9205;52.032;4.314;2023-06-19T02:28:16;30.23;;;16.00;;
18159;SDS011;9205;52.032;4.314;2023-06-19T02:30:45;34.93;;;17.83;;
18159;SDS011;9205;52.032;4.314;2023-06-19T02:33:12;35.03;;;18.23;;
18159;SDS011;9205;52.032;4.314;2023-06-19T02:35:39;36.07;;;19.07;;
18159;SDS011;9205;52.032;4.314;2023-06-19T02:38:09;38.10;;;19.93;;
18159;SDS011;9205;52.032;4.314;2023-06-19T02:40:37;35.40;;;19.47;;
18159;SDS011;9205;52.032;4.314;2023-06-19T02:43:05;35.33;;;19.20;;
18159;SDS011;9205;52.032;4.314;2023-06-19T02:45:32;33.50;;;19.47;;
18159;SDS011;9205;52.032;4.314;2023-06-19T02:48:03;31.77;;;17.53;;
18159;SDS011;9205;52.032;4.314;2023-06-19T02:50:31;29.07;;;16.97;;
18159;SDS011;9205;52.032;4.314;2023-06-19T02:52:59;26.17;;;14.83;;
18159;SDS011;9205;52.032;4.314;2023-06-19T02:55:26;28.37;;;15.60;;
18159;SDS011;9205;52.032;4.314;2023-06-19T02:57:55;25.10;;;14.63;;
18159;SDS011;9205;52.032;4.314;2023-06-19T03:00:22;17.03;;;11.07;;
18159;SDS011;9205;52.032;4.314;2023-06-19T03:02:50;19.97;;;11.13;;
18159;SDS011;9205;52.032;4.314;2023-06-19T03:05:20;19.00;;;10.00;;
18159;SDS011;9205;52.032;4.314;2023-06-19T03:07:47;22.07;;;11.23;;
18159;SDS011;9205;52.032;4.314;2023-06-19T03:10:14;24.47;;;13.33;;
18159;SDS011;9205;52.032;4.314;2023-06-19T03:12:42;27.93;;;14.33;;
18159;SDS011;9205;52.032;4.314;2023-06-19T03:15:09;37.17;;;17.30;;
18159;SDS011;9205;52.032;4.314;2023-06-19T03:17:40;38.23;;;18.53;;
18159;SDS011;9205;52.032;4.314;2023-06-19T03:20:10;41.77;;;19.37;;
18159;SDS011;9205;52.032;4.314;2023-06-19T03:22:42;40.43;;;19.33;;
18159;SDS011;9205;52.032;4.314;2023-06-19T03:25:12;38.20;;;17.90;;
18159;SDS011;9205;52.032;4.314;2023-06-19T03:27:40;38.93;;;18.17;;
18159;SDS011;9205;52.032;4.314;2023-06-19T03:30:07;41.60;;;17.90;;
18159;SDS011;9205;52.032;4.314;2023-06-19T03:32:40;38.27;;;17.10;;
18159;SDS011;9205;52.032;4.314;2023-06-19T03:35:14;35.10;;;15.83;;
18159;SDS011;9205;52.032;4.314;2023-06-19T03:37:44;32.60;;;14.23;;
18159;SDS011;9205;52.032;4.314;2023-06-19T03:40:12;31.03;;;14.03;;
18159;SDS011;9205;52.032;4.314;2023-06-19T03:42:42;27.20;;;13.27;;
18159;SDS011;9205;52.032;4.314;2023-06-19T03:45:09;24.47;;;13.07;;
18159;SDS011;9205;52.032;4.314;2023-06-19T03:47:37;24.47;;;11.73;;
18159;SDS011;9205;52.032;4.314;2023-06-19T03:50:05;21.67;;;10.47;;
18159;SDS011;9205;52.032;4.314;2023-06-19T03:52:35;15.53;;;8.67;;
18159;SDS011;9205;52.032;4.314;2023-06-19T03:55:06;17.00;;;8.83;;
18159;SDS011;9205;52.032;4.314;2023-06-19T03:57:34;15.03;;;7.97;;
18159;SDS011;9205;52.032;4.314;2023-06-19T04:00:02;11.80;;;7.20;;
18159;SDS011;9205;52.032;4.314;2023-06-19T04:02:38;12.50;;;6.97;;
18159;SDS011;9205;52.032;4.314;2023-06-19T04:05:05;12.73;;;7.20;;
18159;SDS011;9205;52.032;4.314;2023-06-19T04:07:33;15.87;;;7.60;;
18159;SDS011;9205;52.032;4.314;2023-06-19T04:10:02;18.73;;;7.70;;
18159;SDS011;9205;52.032;4.314;2023-06-19T04:12:32;14.83;;;8.03;;
18159;SDS011;9205;52.032;4.314;2023-06-19T04:14:59;13.57;;;8.27;;
18159;SDS011;9205;52.032;4.314;2023-06-19T04:17:26;17.43;;;8.93;;
18159;SDS011;9205;52.032;4.314;2023-06-19T04:19:54;15.97;;;8.87;;
18159;SDS011;9205;52.032;4.314;2023-06-19T04:22:21;17.93;;;8.73;;
18159;SDS011;9205;52.032;4.314;2023-06-19T04:24:48;15.20;;;9.07;;
18159;SDS011;9205;52.032;4.314;2023-06-19T04:27:16;20.37;;;10.00;;
18159;SDS011;9205;52.032;4.314;2023-06-19T04:29:45;18.23;;;9.83;;
18159;SDS011;9205;52.032;4.314;2023-06-19T04:32:12;17.70;;;10.40;;
18159;SDS011;9205;52.032;4.314;2023-06-19T04:34:40;19.17;;;10.47;;
18159;SDS011;9205;52.032;4.314;2023-06-19T04:37:11;20.90;;;10.23;;
18159;SDS011;9205;52.032;4.314;2023-06-19T04:39:38;18.97;;;10.10;;
18159;SDS011;9205;52.032;4.314;2023-06-19T04:42:06;18.67;;;9.80;;
18159;SDS011;9205;52.032;4.314;2023-06-19T04:44:33;19.43;;;10.13;;
18159;SDS011;9205;52.032;4.314;2023-06-19T04:47:02;19.07;;;10.37;;
18159;SDS011;9205;52.032;4.314;2023-06-19T04:49:30;22.60;;;11.50;;
18159;SDS011;9205;52.032;4.314;2023-06-19T04:51:57;21.93;;;12.53;;
18159;SDS011;9205;52.032;4.314;2023-06-19T04:54:25;25.33;;;12.30;;
18159;SDS011;9205;52.032;4.314;2023-06-19T04:56:52;21.47;;;11.47;;
18159;SDS011;9205;52.032;4.314;2023-06-19T04:59:19;25.70;;;12.33;;
18159;SDS011;9205;52.032;4.314;2023-06-19T05:01:47;21.47;;;12.60;;
18159;SDS011;9205;52.032;4.314;2023-06-19T05:04:16;22.43;;;12.47;;
18159;SDS011;9205;52.032;4.314;2023-06-19T05:06:43;24.87;;;12.67;;
18159;SDS011;9205;52.032;4.314;2023-06-19T05:09:10;23.10;;;12.70;;
18159;SDS011;9205;52.032;4.314;2023-06-19T05:11:38;21.87;;;12.60;;
18159;SDS011;9205;52.032;4.314;2023-06-19T05:14:05;22.07;;;11.50;;
18159;SDS011;9205;52.032;4.314;2023-06-19T05:16:33;20.60;;;12.23;;
18159;SDS011;9205;52.032;4.314;2023-06-19T05:19:00;23.20;;;12.13;;
18159;SDS011;9205;52.032;4.314;2023-06-19T05:21:29;26.13;;;12.00;;
18159;SDS011;9205;52.032;4.314;2023-06-19T05:23:56;24.87;;;11.83;;
18159;SDS011;9205;52.032;4.314;2023-06-19T05:26:23;19.80;;;10.70;;
18159;SDS011;9205;52.032;4.314;2023-06-19T05:28:51;20.63;;;10.57;;
18159;SDS011;9205;52.032;4.314;2023-06-19T05:31:18;21.40;;;10.77;;
18159;SDS011;9205;52.032;4.314;2023-06-19T05:33:46;22.13;;;12.57;;
18159;SDS011;9205;52.032;4.314;2023-06-19T05:36:13;23.87;;;12.57;;
18159;SDS011;9205;52.032;4.314;2023-06-19T05:38:42;25.07;;;12.73;;
18159;SDS011;9205;52.032;4.314;2023-06-19T05:41:09;22.77;;;10.90;;
18159;SDS011;9205;52.032;4.314;2023-06-19T05:43:36;24.87;;;11.70;;
18159;SDS011;9205;52.032;4.314;2023-06-19T05:46:04;22.13;;;12.20;;
18159;SDS011;9205;52.032;4.314;2023-06-19T05:48:31;23.10;;;12.43;;
18159;SDS011;9205;52.032;4.314;2023-06-19T05:50:59;24.33;;;13.13;;
18159;SDS011;9205;52.032;4.314;2023-06-19T05:53:26;23.03;;;12.73;;
18159;SDS011;9205;52.032;4.314;2023-06-19T05:55:54;22.00;;;12.33;;
18159;SDS011;9205;52.032;4.314;2023-06-19T05:58:23;22.53;;;11.90;;
18159;SDS011;9205;52.032;4.314;2023-06-19T06:00:50;21.07;;;11.87;;
18159;SDS011;9205;52.032;4.314;2023-06-19T06:03:22;19.70;;;11.83;;
18159;SDS011;9205;52.032;4.314;2023-06-19T06:05:50;21.83;;;11.20;;
18159;SDS011;9205;52.032;4.314;2023-06-19T06:08:17;19.97;;;10.17;;
18159;SDS011;9205;52.032;4.314;2023-06-19T06:10:45;25.00;;;10.00;;
18159;SDS011;9205;52.032;4.314;2023-06-19T06:13:14;17.90;;;10.33;;
18159;SDS011;9205;52.032;4.314;2023-06-19T06:15:41;20.53;;;10.57;;
18159;SDS011;9205;52.032;4.314;2023-06-19T06:18:08;19.50;;;10.30;;
18159;SDS011;9205;52.032;4.314;2023-06-19T06:20:35;18.27;;;9.67;;
18159;SDS011;9205;52.032;4.314;2023-06-19T06:23:02;19.33;;;10.43;;
18159;SDS011;9205;52.032;4.314;2023-06-19T06:25:30;17.10;;;9.80;;
18159;SDS011;9205;52.032;4.314;2023-06-19T06:27:58;16.37;;;9.33;;
18159;SDS011;9205;52.032;4.314;2023-06-19T06:30:26;16.67;;;9.83;;
18159;SDS011;9205;52.032;4.314;2023-06-19T06:32:53;19.07;;;10.13;;
18159;SDS011;9205;52.032;4.314;2023-06-19T06:35:21;18.07;;;10.00;;
18159;SDS011;9205;52.032;4.314;2023-06-19T06:37:48;19.70;;;9.30;;
18159;SDS011;9205;52.032;4.314;2023-06-19T06:40:15;18.13;;;10.13;;
18159;SDS011;9205;52.032;4.314;2023-06-19T06:42:44;18.07;;;9.40;;
18159;SDS011;9205;52.032;4.314;2023-06-19T06:45:12;14.93;;;8.27;;
18159;SDS011;9205;52.032;4.314;2023-06-19T06:47:41;16.40;;;9.03;;
18159;SDS011;9205;52.032;4.314;2023-06-19T06:50:08;17.47;;;10.30;;
18159;SDS011;9205;52.032;4.314;2023-06-19T06:52:36;17.03;;;9.13;;
18159;SDS011;9205;52.032;4.314;2023-06-19T06:55:05;16.63;;;8.90;;
18159;SDS011;9205;52.032;4.314;2023-06-19T06:57:33;14.50;;;7.93;;
18159;SDS011;9205;52.032;4.314;2023-06-19T07:00:01;14.10;;;8.27;;
18159;SDS011;9205;52.032;4.314;2023-06-19T07:02:28;16.67;;;9.17;;
18159;SDS011;9205;52.032;4.314;2023-06-19T07:04:57;17.47;;;8.77;;
18159;SDS011;9205;52.032;4.314;2023-06-19T07:07:24;15.60;;;8.87;;
18159;SDS011;9205;52.032;4.314;2023-06-19T07:09:51;14.43;;;8.67;;
18159;SDS011;9205;52.032;4.314;2023-06-19T07:12:19;17.97;;;9.87;;
18159;SDS011;9205;52.032;4.314;2023-06-19T07:14:46;17.73;;;8.90;;
18159;SDS011;9205;52.032;4.314;2023-06-19T07:17:13;17.10;;;8.60;;
18159;SDS011;9205;52.032;4.314;2023-06-19T07:19:41;13.43;;;8.37;;
18159;SDS011;9205;52.032;4.314;2023-06-19T07:22:10;17.37;;;8.70;;
18159;SDS011;9205;52.032;4.314;2023-06-19T07:24:37;18.70;;;9.63;;
18159;SDS011;9205;52.032;4.314;2023-06-19T07:27:06;17.93;;;10.67;;
18159;SDS011;9205;52.032;4.314;2023-06-19T07:29:33;21.13;;;10.73;;
18159;SDS011;9205;52.032;4.314;2023-06-19T07:32:00;22.77;;;11.77;;
18159;SDS011;9205;52.032;4.314;2023-06-19T07:34:29;18.27;;;11.17;;
18159;SDS011;9205;52.032;4.314;2023-06-19T07:36:56;18.23;;;10.90;;
18159;SDS011;9205;52.032;4.314;2023-06-19T07:39:25;21.73;;;11.00;;
18159;SDS011;9205;52.032;4.314;2023-06-19T07:41:52;21.87;;;10.67;;
18159;SDS011;9205;52.032;4.314;2023-06-19T07:44:20;18.03;;;10.73;;
18159;SDS011;9205;52.032;4.314;2023-06-19T07:46:48;21.70;;;11.00;;
18159;SDS011;9205;52.032;4.314;2023-06-19T07:49:18;20.73;;;11.50;;
18159;SDS011;9205;52.032;4.314;2023-06-19T07:51:45;20.10;;;10.73;;
18159;SDS011;9205;52.032;4.314;2023-06-19T07:54:12;17.93;;;10.50;;
18159;SDS011;9205;52.032;4.314;2023-06-19T07:56:41;21.77;;;10.43;;
18159;SDS011;9205;52.032;4.314;2023-06-19T07:59:08;18.70;;;9.53;;
18159;SDS011;9205;52.032;4.314;2023-06-19T08:01:36;16.03;;;9.67;;
18159;SDS011;9205;52.032;4.314;2023-06-19T08:04:03;17.90;;;9.60;;
18159;SDS011;9205;52.032;4.314;2023-06-19T08:06:31;15.17;;;9.00;;
18159;SDS011;9205;52.032;4.314;2023-06-19T08:08:58;15.67;;;8.63;;
18159;SDS011;9205;52.032;4.314;2023-06-19T08:11:25;14.00;;;8.13;;
18159;SDS011;9205;52.032;4.314;2023-06-19T08:13:54;17.37;;;8.13;;
18159;SDS011;9205;52.032;4.314;2023-06-19T08:16:22;16.73;;;8.93;;
18159;SDS011;9205;52.032;4.314;2023-06-19T08:18:51;14.67;;;8.53;;
18159;SDS011;9205;52.032;4.314;2023-06-19T08:21:18;15.60;;;9.20;;
18159;SDS011;9205;52.032;4.314;2023-06-19T08:23:46;18.17;;;9.77;;
18159;SDS011;9205;52.032;4.314;2023-06-19T08:26:14;16.53;;;9.10;;
18159;SDS011;9205;52.032;4.314;2023-06-19T08:28:41;14.87;;;8.67;;
18159;SDS011;9205;52.032;4.314;2023-06-19T08:31:12;16.00;;;9.03;;
18159;SDS011;9205;52.032;4.314;2023-06-19T08:33:39;16.70;;;8.80;;
18159;SDS011;9205;52.032;4.314;2023-06-19T08:36:06;14.77;;;8.50;;
18159;SDS011;9205;52.032;4.314;2023-06-19T08:38:34;14.40;;;7.57;;
18159;SDS011;9205;52.032;4.314;2023-06-19T08:41:01;12.10;;;7.50;;
18159;SDS011;9205;52.032;4.314;2023-06-19T08:43:29;13.47;;;7.10;;
18159;SDS011;9205;52.032;4.314;2023-06-19T08:46:02;12.93;;;7.33;;
18159;SDS011;9205;52.032;4.314;2023-06-19T08:48:38;13.60;;;7.13;;
18159;SDS011;9205;52.032;4.314;2023-06-19T08:51:06;12.60;;;7.00;;
18159;SDS011;9205;52.032;4.314;2023-06-19T08:53:37;14.07;;;7.97;;
18159;SDS011;9205;52.032;4.314;2023-06-19T08:56:12;13.27;;;7.63;;
18159;SDS011;9205;52.032;4.314;2023-06-19T08:58:39;12.90;;;7.43;;
18159;SDS011;9205;52.032;4.314;2023-06-19T09:01:07;13.70;;;6.93;;
18159;SDS011;9205;52.032;4.314;2023-06-19T09:03:35;12.43;;;6.83;;
18159;SDS011;9205;52.032;4.314;2023-06-19T09:06:04;12.30;;;7.37;;
18159;SDS011;9205;52.032;4.314;2023-06-19T09:08:33;14.80;;;7.53;;
18159;SDS011;9205;52.032;4.314;2023-06-19T09:11:01;13.47;;;8.03;;
18159;SDS011;9205;52.032;4.314;2023-06-19T09:13:30;12.43;;;7.17;;
18159;SDS011;9205;52.032;4.314;2023-06-19T09:16:00;11.40;;;6.70;;
18159;SDS011;9205;52.032;4.314;2023-06-19T09:18:30;11.77;;;6.77;;
18159;SDS011;9205;52.032;4.314;2023-06-19T09:21:16;13.07;;;7.70;;
18159;SDS011;9205;52.032;4.314;2023-06-19T09:23:44;12.87;;;7.50;;
18159;SDS011;9205;52.032;4.314;2023-06-19T09:26:13;12.90;;;7.30;;
18159;SDS011;9205;52.032;4.314;2023-06-19T09:28:43;16.40;;;7.37;;
18159;SDS011;9205;52.032;4.314;2023-06-19T09:31:10;13.20;;;6.80;;
18159;SDS011;9205;52.032;4.314;2023-06-19T09:33:39;12.70;;;7.00;;
18159;SDS011;9205;52.032;4.314;2023-06-19T09:36:07;11.37;;;7.07;;
18159;SDS011;9205;52.032;4.314;2023-06-19T09:38:36;13.17;;;7.53;;
18159;SDS011;9205;52.032;4.314;2023-06-19T09:41:08;9.47;;;6.20;;
18159;SDS011;9205;52.032;4.314;2023-06-19T09:43:36;12.20;;;6.60;;
18159;SDS011;9205;52.032;4.314;2023-06-19T09:46:07;12.67;;;6.47;;
18159;SDS011;9205;52.032;4.314;2023-06-19T09:48:40;9.53;;;6.00;;
18159;SDS011;9205;52.032;4.314;2023-06-19T09:51:09;10.00;;;6.13;;
18159;SDS011;9205;52.032;4.314;2023-06-19T09:53:48;16.67;;;6.60;;
18159;SDS011;9205;52.032;4.314;2023-06-19T09:56:16;9.07;;;6.23;;
18159;SDS011;9205;52.032;4.314;2023-06-19T09:58:47;13.00;;;6.23;;
18159;SDS011;9205;52.032;4.314;2023-06-19T10:01:18;10.23;;;5.60;;
18159;SDS011;9205;52.032;4.314;2023-06-19T10:03:47;11.20;;;5.70;;
18159;SDS011;9205;52.032;4.314;2023-06-19T10:06:15;10.07;;;5.33;;
18159;SDS011;9205;52.032;4.314;2023-06-19T10:08:46;11.63;;;5.33;;
18159;SDS011;9205;52.032;4.314;2023-06-19T10:11:15;7.90;;;5.50;;
18159;SDS011;9205;52.032;4.314;2023-06-19T10:13:43;9.77;;;5.73;;
18159;SDS011;9205;52.032;4.314;2023-06-19T10:16:19;8.73;;;5.57;;
18159;SDS011;9205;52.032;4.314;2023-06-19T10:18:47;8.67;;;4.83;;
18159;SDS011;9205;52.032;4.314;2023-06-19T10:21:16;7.30;;;4.43;;
18159;SDS011;9205;52.032;4.314;2023-06-19T10:23:53;9.40;;;5.30;;
18159;SDS011;9205;52.032;4.314;2023-06-19T10:26:29;8.70;;;5.30;;
18159;SDS011;9205;52.032;4.314;2023-06-19T10:28:59;7.20;;;5.03;;
18159;SDS011;9205;52.032;4.314;2023-06-19T10:31:26;11.00;;;4.10;;
18159;SDS011;9205;52.032;4.314;2023-06-19T10:33:56;7.10;;;4.20;;
18159;SDS011;9205;52.032;4.314;2023-06-19T10:36:24;9.50;;;4.87;;
18159;SDS011;9205;52.032;4.314;2023-06-19T10:38:55;9.87;;;4.90;;
18159;SDS011;9205;52.032;4.314;2023-06-19T10:41:24;6.03;;;4.30;;
18159;SDS011;9205;52.032;4.314;2023-06-19T10:43:52;7.20;;;4.23;;
18159;SDS011;9205;52.032;4.314;2023-06-19T10:46:23;9.63;;;4.87;;
18159;SDS011;9205;52.032;4.314;2023-06-19T10:48:55;6.93;;;4.80;;
18159;SDS011;9205;52.032;4.314;2023-06-19T10:51:26;7.43;;;4.60;;
18159;SDS011;9205;52.032;4.314;2023-06-19T10:53:55;8.47;;;5.00;;
18159;SDS011;9205;52.032;4.314;2023-06-19T10:56:25;6.10;;;3.90;;
18159;SDS011;9205;52.032;4.314;2023-06-19T10:58:59;9.73;;;4.80;;
18159;SDS011;9205;52.032;4.314;2023-06-19T11:01:32;7.53;;;5.07;;
18159;SDS011;9205;52.032;4.314;2023-06-19T11:04:04;7.47;;;4.70;;
18159;SDS011;9205;52.032;4.314;2023-06-19T11:06:36;8.43;;;4.27;;
18159;SDS011;9205;52.032;4.314;2023-06-19T11:09:08;8.90;;;4.40;;
18159;SDS011;9205;52.032;4.314;2023-06-19T11:11:37;7.60;;;4.47;;
18159;SDS011;9205;52.032;4.314;2023-06-19T11:14:10;7.33;;;4.50;;
18159;SDS011;9205;52.032;4.314;2023-06-19T11:16:41;8.17;;;4.93;;
18159;SDS011;9205;52.032;4.314;2023-06-19T11:19:14;8.40;;;4.50;;
18159;SDS011;9205;52.032;4.314;2023-06-19T11:21:48;10.27;;;4.93;;
18159;SDS011;9205;52.032;4.314;2023-06-19T11:24:19;9.20;;;5.70;;
18159;SDS011;9205;52.032;4.314;2023-06-19T11:26:49;7.07;;;4.70;;
18159;SDS011;9205;52.032;4.314;2023-06-19T11:29:18;8.80;;;5.15;;
18159;SDS011;9205;52.032;4.314;2023-06-19T11:31:48;8.40;;;5.28;;
18159;SDS011;9205;52.032;4.314;2023-06-19T11:34:19;13.13;;;5.80;;
18159;SDS011;9205;52.032;4.314;2023-06-19T11:36:57;11.68;;;6.10;;
18159;SDS011;9205;52.032;4.314;2023-06-19T11:39:27;9.90;;;6.35;;
18159;SDS011;9205;52.032;4.314;2023-06-19T11:41:58;8.20;;;5.55;;
18159;SDS011;9205;52.032;4.314;2023-06-19T11:44:26;10.55;;;6.70;;
18159;SDS011;9205;52.032;4.314;2023-06-19T11:46:56;11.70;;;6.68;;
18159;SDS011;9205;52.032;4.314;2023-06-19T11:49:25;10.52;;;6.13;;
18159;SDS011;9205;52.032;4.314;2023-06-19T11:51:53;9.20;;;5.75;;
18159;SDS011;9205;52.032;4.314;2023-06-19T11:54:31;9.00;;;6.05;;
18159;SDS011;9205;52.032;4.314;2023-06-19T11:56:59;10.48;;;6.53;;
18159;SDS011;9205;52.032;4.314;2023-06-19T11:59:40;12.32;;;6.53;;
18159;SDS011;9205;52.032;4.314;2023-06-19T12:02:14;11.90;;;7.22;;
18159;SDS011;9205;52.032;4.314;2023-06-19T12:04:41;14.25;;;7.93;;
18159;SDS011;9205;52.032;4.314;2023-06-19T12:07:08;12.73;;;7.95;;
18159;SDS011;9205;52.032;4.314;2023-06-19T12:09:38;10.73;;;6.53;;
18159;SDS011;9205;52.032;4.314;2023-06-19T12:12:07;10.45;;;5.50;;
18159;SDS011;9205;52.032;4.314;2023-06-19T12:14:37;10.10;;;5.28;;
18159;SDS011;9205;52.032;4.314;2023-06-19T12:17:05;5.43;;;3.65;;
18159;SDS011;9205;52.032;4.314;2023-06-19T12:19:34;5.90;;;3.95;;
18159;SDS011;9205;52.032;4.314;2023-06-19T12:22:03;7.88;;;3.58;;
18159;SDS011;9205;52.032;4.314;2023-06-19T12:24:32;6.53;;;3.50;;
18159;SDS011;9205;52.032;4.314;2023-06-19T12:27:04;7.15;;;4.68;;
18159;SDS011;9205;52.032;4.314;2023-06-19T12:29:35;6.38;;;3.60;;
18159;SDS011;9205;52.032;4.314;2023-06-19T12:32:03;5.95;;;4.00;;
18159;SDS011;9205;52.032;4.314;2023-06-19T12:34:32;5.20;;;3.40;;
18159;SDS011;9205;52.032;4.314;2023-06-19T12:37:02;8.60;;;3.90;;
18159;SDS011;9205;52.032;4.314;2023-06-19T12:39:31;6.75;;;3.55;;
18159;SDS011;9205;52.032;4.314;2023-06-19T12:42:01;6.80;;;3.47;;
18159;SDS011;9205;52.032;4.314;2023-06-19T12:44:33;5.15;;;3.40;;
18159;SDS011;9205;52.032;4.314;2023-06-19T12:47:03;6.53;;;3.35;;
18159;SDS011;9205;52.032;4.314;2023-06-19T12:49:37;6.22;;;3.30;;
18159;SDS011;9205;52.032;4.314;2023-06-19T12:52:05;6.20;;;3.00;;
18159;SDS011;9205;52.032;4.314;2023-06-19T12:54:42;5.43;;;2.92;;
18159;SDS011;9205;52.032;4.314;2023-06-19T12:57:12;5.10;;;3.08;;
18159;SDS011;9205;52.032;4.314;2023-06-19T12:59:49;6.95;;;3.72;;
18159;SDS011;9205;52.032;4.314;2023-06-19T13:02:16;6.25;;;3.42;;
18159;SDS011;9205;52.032;4.314;2023-06-19T13:04:45;8.40;;;3.63;;
18159;SDS011;9205;52.032;4.314;2023-06-19T13:07:15;4.82;;;3.33;;
18159;SDS011;9205;52.032;4.314;2023-06-19T13:09:44;7.75;;;3.33;;
18159;SDS011;9205;52.032;4.314;2023-06-19T13:12:17;7.90;;;3.20;;
18159;SDS011;9205;52.032;4.314;2023-06-19T13:14:48;4.05;;;3.00;;
18159;SDS011;9205;52.032;4.314;2023-06-19T13:17:18;7.80;;;3.72;;
18159;SDS011;9205;52.032;4.314;2023-06-19T13:19:47;6.70;;;3.28;;
18159;SDS011;9205;52.032;4.314;2023-06-19T13:22:18;8.00;;;3.90;;
18159;SDS011;9205;52.032;4.314;2023-06-19T13:24:51;7.40;;;3.40;;
18159;SDS011;9205;52.032;4.314;2023-06-19T13:27:21;6.80;;;3.42;;
18159;SDS011;9205;52.032;4.314;2023-06-19T13:33:19;5.47;;;3.05;;
18159;SDS011;9205;52.032;4.314;2023-06-19T13:35:47;9.18;;;3.70;;
18159;SDS011;9205;52.032;4.314;2023-06-19T13:38:16;6.53;;;3.15;;
18159;SDS011;9205;52.032;4.314;2023-06-19T13:40:44;4.72;;;3.40;;
18159;SDS011;9205;52.032;4.314;2023-06-19T13:43:13;7.38;;;3.70;;
18159;SDS011;9205;52.032;4.314;2023-06-19T13:45:45;7.65;;;3.72;;
18159;SDS011;9205;52.032;4.314;2023-06-19T13:48:13;6.05;;;3.45;;
18159;SDS011;9205;52.032;4.314;2023-06-19T13:50:42;6.55;;;3.40;;
18159;SDS011;9205;52.032;4.314;2023-06-19T13:53:10;5.55;;;3.58;;
18159;SDS011;9205;52.032;4.314;2023-06-19T13:55:38;8.77;;;3.92;;
18159;SDS011;9205;52.032;4.314;2023-06-19T13:58:06;5.50;;;3.45;;
18159;SDS011;9205;52.032;4.314;2023-06-19T14:00:35;5.45;;;3.10;;
18159;SDS011;9205;52.032;4.314;2023-06-19T14:03:03;6.22;;;3.50;;
18159;SDS011;9205;52.032;4.314;2023-06-19T14:05:32;5.55;;;3.40;;
18159;SDS011;9205;52.032;4.314;2023-06-19T14:08:01;6.82;;;3.80;;
18159;SDS011;9205;52.032;4.314;2023-06-19T14:10:32;5.78;;;3.13;;
18159;SDS011;9205;52.032;4.314;2023-06-19T14:13:00;5.72;;;3.33;;
18159;SDS011;9205;52.032;4.314;2023-06-19T14:15:29;6.50;;;4.03;;
18159;SDS011;9205;52.032;4.314;2023-06-19T14:17:58;8.10;;;4.07;;
18159;SDS011;9205;52.032;4.314;2023-06-19T14:20:25;7.63;;;3.85;;
18159;SDS011;9205;52.032;4.314;2023-06-19T14:22:53;7.38;;;3.92;;
18159;SDS011;9205;52.032;4.314;2023-06-19T14:25:21;8.07;;;4.22;;
18159;SDS011;9205;52.032;4.314;2023-06-19T14:27:49;8.55;;;4.25;;
18159;SDS011;9205;52.032;4.314;2023-06-19T14:30:18;6.47;;;3.50;;
18159;SDS011;9205;52.032;4.314;2023-06-19T14:32:46;7.68;;;3.88;;
18159;SDS011;9205;52.032;4.314;2023-06-19T14:35:16;7.18;;;4.30;;
18159;SDS011;9205;52.032;4.314;2023-06-19T14:37:44;7.70;;;4.07;;
18159;SDS011;9205;52.032;4.314;2023-06-19T14:40:12;7.07;;;3.88;;
18159;SDS011;9205;52.032;4.314;2023-06-19T14:42:40;7.50;;;4.60;;
18159;SDS011;9205;52.032;4.314;2023-06-19T14:45:08;6.13;;;4.00;;
18159;SDS011;9205;52.032;4.314;2023-06-19T14:47:39;6.07;;;3.78;;
18159;SDS011;9205;52.032;4.314;2023-06-19T14:50:07;7.15;;;3.70;;
18159;SDS011;9205;52.032;4.314;2023-06-19T14:52:39;5.25;;;3.20;;
18159;SDS011;9205;52.032;4.314;2023-06-19T14:55:07;6.38;;;3.47;;
18159;SDS011;9205;52.032;4.314;2023-06-19T14:57:37;5.80;;;3.75;;
18159;SDS011;9205;52.032;4.314;2023-06-19T15:00:05;7.10;;;3.60;;
18159;SDS011;9205;52.032;4.314;2023-06-19T15:02:35;5.50;;;3.40;;
18159;SDS011;9205;52.032;4.314;2023-06-19T15:05:03;9.73;;;3.92;;